QFA535 YBBN-YSSY
Flight info
| Callsign | QFA535 |
|---|---|
| Flight time | N/A |
| Altitude | 36000 |
| Route | SANEG H91 IGDAM H652 BOREE |
| Aircraft | B738/M-SDE2E3FGHIRWXY/LB1 |
Departure
| Time | 2026-05-05 09:25 |
|---|---|
| Airport | Brisbane International Airport (YBBN) |
Arrival
| Time | N/A |
|---|---|
| Airport | Sydney Kingsford Smith International Airport (YSSY) |
| Time | Latitude | Longitude | Altitude | Speed | Heading |
|---|---|---|---|---|---|
| 2026-05-05 08:44 | -27.38479 | 153.12148 | 17 ft | 0 kts | 299° |
| 2026-05-05 09:07 | -27.38484 | 153.12156 | 18 ft | 2 kts | 299° |
| 2026-05-05 09:07 | -27.38492 | 153.12173 | 19 ft | 2 kts | 299° |
| 2026-05-05 09:07 | -27.38500 | 153.12189 | 20 ft | 2 kts | 297° |
| 2026-05-05 09:07 | -27.38506 | 153.12206 | 19 ft | 2 kts | 260° |
| 2026-05-05 09:08 | -27.38501 | 153.12217 | 17 ft | 1 kts | 210° |
| 2026-05-05 09:08 | -27.38498 | 153.12219 | 17 ft | 0 kts | 207° |
| 2026-05-05 09:11 | -27.38494 | 153.12221 | 17 ft | 5 kts | 207° |
| 2026-05-05 09:11 | -27.38448 | 153.12240 | 17 ft | 0 kts | 155° |
| 2026-05-05 09:12 | -27.38496 | 153.12289 | 17 ft | 13 kts | 121° |
| 2026-05-05 09:12 | -27.38511 | 153.12321 | 18 ft | 1 kts | 116° |
| 2026-05-05 09:13 | -27.38514 | 153.12329 | 18 ft | 1 kts | 116° |
| 2026-05-05 09:13 | -27.38520 | 153.12341 | 17 ft | 2 kts | 116° |
| 2026-05-05 09:13 | -27.38520 | 153.12342 | 17 ft | 0 kts | 116° |
| 2026-05-05 09:14 | -27.38529 | 153.12353 | 17 ft | 5 kts | 129° |
| 2026-05-05 09:14 | -27.38578 | 153.12400 | 17 ft | 13 kts | 160° |
| 2026-05-05 09:14 | -27.38684 | 153.12373 | 17 ft | 19 kts | 202° |
| 2026-05-05 09:14 | -27.38818 | 153.12295 | 18 ft | 25 kts | 210° |
| 2026-05-05 09:15 | -27.38984 | 153.12197 | 17 ft | 26 kts | 206° |
| 2026-05-05 09:15 | -27.39140 | 153.12109 | 18 ft | 25 kts | 207° |
| 2026-05-05 09:15 | -27.39287 | 153.12024 | 17 ft | 23 kts | 206° |
| 2026-05-05 09:15 | -27.39427 | 153.11942 | 17 ft | 22 kts | 204° |
| 2026-05-05 09:16 | -27.39565 | 153.11866 | 17 ft | 22 kts | 207° |
| 2026-05-05 09:16 | -27.39698 | 153.11790 | 17 ft | 21 kts | 207° |
| 2026-05-05 09:16 | -27.39827 | 153.11717 | 18 ft | 20 kts | 207° |
| 2026-05-05 09:16 | -27.39951 | 153.11644 | 17 ft | 20 kts | 207° |
| 2026-05-05 09:17 | -27.40072 | 153.11575 | 18 ft | 19 kts | 207° |
| 2026-05-05 09:17 | -27.40190 | 153.11509 | 18 ft | 19 kts | 200° |
| 2026-05-05 09:17 | -27.40255 | 153.11536 | 17 ft | 7 kts | 120° |
| 2026-05-05 09:17 | -27.40286 | 153.11601 | 17 ft | 12 kts | 117° |
| 2026-05-05 09:18 | -27.40309 | 153.11655 | 17 ft | 0 kts | 112° |
| 2026-05-05 09:21 | -27.40314 | 153.11672 | 17 ft | 6 kts | 105° |
| 2026-05-05 09:21 | -27.40316 | 153.11747 | 18 ft | 13 kts | 85° |
| 2026-05-05 09:21 | -27.40253 | 153.11841 | 17 ft | 15 kts | 26° |
| 2026-05-05 09:22 | -27.40229 | 153.11855 | 17 ft | 0 kts | 27° |
| 2026-05-05 09:24 | -27.40223 | 153.11858 | 17 ft | 10 kts | 27° |
| 2026-05-05 09:25 | -27.40042 | 153.11961 | 18 ft | 75 kts | 27° |
| 2026-05-05 09:25 | -27.39311 | 153.12376 | 17 ft | 156 kts | 27° |
| 2026-05-05 09:25 | -27.37771 | 153.13249 | 792 ft | 192 kts | 27° |
| 2026-05-05 09:25 | -27.36986 | 153.13695 | 1730 ft | 182 kts | 27° |
| 2026-05-05 09:26 | -27.35911 | 153.14284 | 3132 ft | 161 kts | 27° |
| 2026-05-05 09:26 | -27.34930 | 153.14820 | 4112 ft | 159 kts | 28° |
| 2026-05-05 09:26 | -27.33826 | 153.15436 | 4402 ft | 199 kts | 28° |
| 2026-05-05 09:26 | -27.32504 | 153.16192 | 4655 ft | 227 kts | 31° |
| 2026-05-05 09:27 | -27.31363 | 153.17498 | 4834 ft | 249 kts | 66° |
| 2026-05-05 09:27 | -27.30621 | 153.19322 | 5403 ft | 262 kts | 64° |
| 2026-05-05 09:27 | -27.29661 | 153.21094 | 5866 ft | 267 kts | 55° |
| 2026-05-05 09:27 | -27.28539 | 153.22767 | 5988 ft | 270 kts | 63° |
| 2026-05-05 09:28 | -27.28141 | 153.24739 | 6004 ft | 263 kts | 98° |
| 2026-05-05 09:28 | -27.28410 | 153.26768 | 6128 ft | 264 kts | 95° |
| 2026-05-05 09:28 | -27.28436 | 153.28857 | 6783 ft | 269 kts | 90° |
| 2026-05-05 09:28 | -27.28370 | 153.30955 | 7677 ft | 268 kts | 89° |
| 2026-05-05 09:29 | -27.28280 | 153.33060 | 8500 ft | 271 kts | 89° |
| 2026-05-05 09:29 | -27.28289 | 153.35182 | 9275 ft | 274 kts | 102° |
| 2026-05-05 09:29 | -27.28933 | 153.37194 | 10069 ft | 274 kts | 120° |
| 2026-05-05 09:29 | -27.30076 | 153.38930 | 10707 ft | 281 kts | 136° |
| 2026-05-05 09:30 | -27.31617 | 153.40319 | 11296 ft | 288 kts | 149° |
| 2026-05-05 09:30 | -27.33475 | 153.41199 | 11889 ft | 294 kts | 172° |
| 2026-05-05 09:30 | -27.35526 | 153.41269 | 12552 ft | 297 kts | 186° |
| 2026-05-05 09:30 | -27.37601 | 153.41062 | 13202 ft | 303 kts | 187° |
| 2026-05-05 09:31 | -27.39715 | 153.40663 | 13576 ft | 318 kts | 198° |
| 2026-05-05 09:31 | -27.41900 | 153.39912 | 13756 ft | 339 kts | 201° |
| 2026-05-05 09:31 | -27.44218 | 153.39087 | 13976 ft | 358 kts | 200° |
| 2026-05-05 09:31 | -27.46632 | 153.38260 | 14452 ft | 365 kts | 202° |
| 2026-05-05 09:32 | -27.48865 | 153.36951 | 15020 ft | 362 kts | 221° |
| 2026-05-05 09:32 | -27.50786 | 153.35113 | 15636 ft | 364 kts | 225° |
| 2026-05-05 09:32 | -27.52707 | 153.33231 | 16243 ft | 368 kts | 225° |
| 2026-05-05 09:32 | -27.54657 | 153.31352 | 16857 ft | 371 kts | 225° |
| 2026-05-05 09:33 | -27.56472 | 153.29305 | 17436 ft | 367 kts | 240° |
| 2026-05-05 09:33 | -27.57687 | 153.26810 | 18074 ft | 363 kts | 249° |
| 2026-05-05 09:33 | -27.58780 | 153.24241 | 18664 ft | 365 kts | 249° |
| 2026-05-05 09:33 | -27.59896 | 153.21664 | 19248 ft | 366 kts | 249° |
| 2026-05-05 09:34 | -27.61096 | 153.19132 | 19846 ft | 371 kts | 240° |
| 2026-05-05 09:34 | -27.62875 | 153.16973 | 20409 ft | 384 kts | 223° |
| 2026-05-05 09:34 | -27.65143 | 153.15321 | 21004 ft | 390 kts | 217° |
| 2026-05-05 09:34 | -27.67501 | 153.13785 | 21564 ft | 392 kts | 216° |
| 2026-05-05 09:35 | -27.69878 | 153.12263 | 22107 ft | 394 kts | 216° |
| 2026-05-05 09:35 | -27.74640 | 153.09160 | 23174 ft | 396 kts | 217° |
| 2026-05-05 09:35 | -27.77022 | 153.07578 | 23691 ft | 398 kts | 218° |
| 2026-05-05 09:36 | -27.79411 | 153.05984 | 24080 ft | 401 kts | 218° |
| 2026-05-05 09:36 | -27.81789 | 153.04394 | 24433 ft | 404 kts | 218° |
| 2026-05-05 09:36 | -27.84217 | 153.02777 | 24792 ft | 408 kts | 218° |
| 2026-05-05 09:36 | -27.86678 | 153.01153 | 25156 ft | 411 kts | 218° |
| 2026-05-05 09:37 | -27.89162 | 152.99529 | 25527 ft | 414 kts | 218° |
| 2026-05-05 09:37 | -27.91667 | 152.97905 | 25913 ft | 416 kts | 218° |
| 2026-05-05 09:37 | -27.94192 | 152.96285 | 26288 ft | 419 kts | 218° |
| 2026-05-05 09:37 | -27.96737 | 152.94666 | 26665 ft | 421 kts | 218° |
| 2026-05-05 09:38 | -27.99302 | 152.93050 | 27044 ft | 423 kts | 218° |
| 2026-05-05 09:38 | -28.01883 | 152.91441 | 27433 ft | 425 kts | 218° |
| 2026-05-05 09:38 | -28.04482 | 152.89836 | 27815 ft | 426 kts | 218° |
| 2026-05-05 09:38 | -28.06845 | 152.88067 | 25737 ft | 395 kts | 226° |
| 2026-05-05 09:39 | -28.09193 | 152.86072 | 20349 ft | 470 kts | 219° |
| 2026-05-05 09:39 | -28.08391 | 152.85269 | 12268 ft | 470 kts | 351° |
| 2026-05-05 09:39 | -28.05356 | 152.84716 | 13087 ft | 432 kts | 343° |
| 2026-05-05 09:39 | -28.02788 | 152.83288 | 14254 ft | 388 kts | 328° |
| 2026-05-05 09:40 | -28.00739 | 152.81896 | 17300 ft | 297 kts | 327° |
| 2026-05-05 09:40 | -27.99204 | 152.80834 | 20148 ft | 229 kts | 324° |
| 2026-05-05 09:40 | -27.97905 | 152.79927 | 21204 ft | 219 kts | 322° |
| 2026-05-05 09:40 | -27.96477 | 152.78918 | 20188 ft | 274 kts | 324° |
| 2026-05-05 09:41 | -27.94766 | 152.77434 | 19013 ft | 338 kts | 311° |
| 2026-05-05 09:41 | -27.93191 | 152.75263 | 18593 ft | 371 kts | 309° |
| 2026-05-05 09:41 | -27.91575 | 152.73004 | 19356 ft | 360 kts | 308° |
| 2026-05-05 09:41 | -27.90097 | 152.70920 | 21166 ft | 318 kts | 307° |
| 2026-05-05 09:42 | -27.88736 | 152.69113 | 22707 ft | 296 kts | 310° |
| 2026-05-05 09:42 | -27.87322 | 152.67340 | 22687 ft | 314 kts | 308° |
| 2026-05-05 09:42 | -27.85985 | 152.65239 | 21932 ft | 349 kts | 297° |
| 2026-05-05 09:42 | -27.84844 | 152.62655 | 21367 ft | 380 kts | 295° |
| 2026-05-05 09:43 | -27.83736 | 152.59919 | 21735 ft | 382 kts | 295° |
| 2026-05-05 09:43 | -27.82580 | 152.57326 | 23324 ft | 352 kts | 298° |
| 2026-05-05 09:43 | -27.81417 | 152.55096 | 25292 ft | 309 kts | 301° |
| 2026-05-05 09:43 | -27.80252 | 152.53083 | 25877 ft | 315 kts | 308° |
| 2026-05-05 09:44 | -27.78671 | 152.51144 | 24867 ft | 361 kts | 309° |
| 2026-05-05 09:44 | -27.76963 | 152.48991 | 24230 ft | 394 kts | 309° |
| 2026-05-05 09:44 | -27.75137 | 152.46632 | 24564 ft | 395 kts | 308° |
| 2026-05-05 09:44 | -27.72767 | 152.45046 | 24068 ft | 433 kts | 337° |
| 2026-05-05 09:45 | -27.69805 | 152.44046 | 24084 ft | 444 kts | 339° |
| 2026-05-05 09:45 | -27.66975 | 152.43201 | 26065 ft | 399 kts | 346° |
| 2026-05-05 09:45 | -27.64119 | 152.43716 | 25455 ft | 461 kts | 14° |
| 2026-05-05 09:45 | -27.61093 | 152.45532 | 24461 ft | 506 kts | 24° |
| 2026-05-05 09:46 | -27.58246 | 152.47534 | 25214 ft | 463 kts | 25° |
| 2026-05-05 09:46 | -27.55712 | 152.49697 | 24671 ft | 465 kts | 33° |
| 2026-05-05 09:46 | -27.53309 | 152.52050 | 24582 ft | 449 kts | 34° |
| 2026-05-05 09:46 | -27.51107 | 152.54438 | 24698 ft | 435 kts | 43° |
| 2026-05-05 09:47 | -27.49580 | 152.57486 | 23574 ft | 475 kts | 66° |
| 2026-05-05 09:47 | -27.48382 | 152.61080 | 21864 ft | 500 kts | 71° |
| 2026-05-05 09:47 | -27.47723 | 152.64062 | 14308 ft | 171 kts | 73° |
| 2026-05-05 09:47 | -27.47073 | 152.66400 | 4918 ft | 454 kts | 73° |
| 2026-05-05 09:48 | -27.46224 | 152.69516 | 4330 ft | 379 kts | 77° |
| 2026-05-05 09:48 | -27.46184 | 152.72242 | 3311 ft | 338 kts | 110° |
| 2026-05-05 09:48 | -27.47932 | 152.74034 | 1663 ft | 345 kts | 150° |
| 2026-05-05 09:48 | -27.49587 | 152.75553 | 2272 ft | 285 kts | 116° |
| 2026-05-05 09:49 | -27.50316 | 152.77470 | 2549 ft | 249 kts | 113° |
| 2026-05-05 09:49 | -27.50954 | 152.79203 | 2567 ft | 231 kts | 112° |
| 2026-05-05 09:49 | -27.51532 | 152.80891 | 2096 ft | 236 kts | 110° |
| 2026-05-05 09:49 | -27.52115 | 152.82645 | 1749 ft | 229 kts | 109° |
| 2026-05-05 09:50 | -27.52553 | 152.84270 | 1765 ft | 209 kts | 106° |
| 2026-05-05 09:50 | -27.52938 | 152.85803 | 1562 ft | 197 kts | 107° |
| 2026-05-05 09:50 | -27.53380 | 152.87168 | 1622 ft | 173 kts | 112° |
| 2026-05-05 09:50 | -27.53834 | 152.88354 | 1582 ft | 156 kts | 112° |
| 2026-05-05 09:51 | -27.54258 | 152.89473 | 1376 ft | 154 kts | 112° |
| 2026-05-05 09:51 | -27.54684 | 152.90632 | 1318 ft | 177 kts | 111° |
| 2026-05-05 09:51 | -27.55215 | 152.92069 | 1653 ft | 214 kts | 114° |
| 2026-05-05 09:51 | -27.55867 | 152.93611 | 2273 ft | 224 kts | 115° |
| 2026-05-05 09:52 | -27.56121 | 152.95248 | 3364 ft | 205 kts | 73° |
| 2026-05-05 09:52 | -27.55607 | 152.96805 | 3890 ft | 228 kts | 72° |
| 2026-05-05 09:52 | -27.55011 | 152.98562 | 4153 ft | 250 kts | 71° |
| 2026-05-05 09:52 | -27.54229 | 153.00374 | 4502 ft | 263 kts | 65° |
| 2026-05-05 09:53 | -27.53176 | 153.01921 | 4868 ft | 242 kts | 38° |
| 2026-05-05 09:53 | -27.51763 | 153.02949 | 4728 ft | 244 kts | 32° |
| 2026-05-05 09:53 | -27.50303 | 153.03838 | 4458 ft | 233 kts | 26° |
| 2026-05-05 09:53 | -27.48850 | 153.04551 | 4105 ft | 226 kts | 24° |
| 2026-05-05 09:54 | -27.47370 | 153.05362 | 3173 ft | 245 kts | 32° |
| 2026-05-05 09:54 | -27.45914 | 153.06285 | 2617 ft | 237 kts | 26° |
| 2026-05-05 09:54 | -27.44461 | 153.07079 | 2168 ft | 226 kts | 27° |
| 2026-05-05 09:54 | -27.43077 | 153.07865 | 1647 ft | 220 kts | 30° |
| 2026-05-05 09:55 | -27.41743 | 153.08700 | 1001 ft | 219 kts | 25° |
| 2026-05-05 09:55 | -27.40423 | 153.09443 | 693 ft | 204 kts | 30° |
| 2026-05-05 09:55 | -27.39128 | 153.10235 | 944 ft | 217 kts | 28° |
| 2026-05-05 09:55 | -27.37886 | 153.10935 | 2398 ft | 183 kts | 27° |
| 2026-05-05 09:56 | -27.36724 | 153.11560 | 3309 ft | 200 kts | 27° |
| 2026-05-05 09:56 | -27.35318 | 153.12242 | 3633 ft | 232 kts | 19° |
| 2026-05-05 09:56 | -27.33683 | 153.12580 | 4181 ft | 244 kts | 359° |
| 2026-05-05 09:56 | -27.32071 | 153.12178 | 5117 ft | 235 kts | 335° |
| 2026-05-05 09:57 | -27.30616 | 153.11386 | 5886 ft | 236 kts | 334° |
| 2026-05-05 09:57 | -27.29078 | 153.10562 | 6218 ft | 256 kts | 331° |
| 2026-05-05 09:57 | -27.27607 | 153.09442 | 6633 ft | 266 kts | 317° |
| 2026-05-05 09:57 | -27.26473 | 153.07684 | 6568 ft | 292 kts | 290° |
| 2026-05-05 09:58 | -27.26047 | 153.05381 | 6652 ft | 303 kts | 266° |
| 2026-05-05 09:58 | -27.26511 | 153.03162 | 7245 ft | 290 kts | 238° |
| 2026-05-05 09:58 | -27.27962 | 153.01731 | 7936 ft | 275 kts | 199° |
| 2026-05-05 09:58 | -27.29847 | 153.01620 | 8411 ft | 275 kts | 175° |
| 2026-05-05 09:59 | -27.31767 | 153.01785 | 8615 ft | 286 kts | 175° |
| 2026-05-05 09:59 | -27.33747 | 153.01971 | 8443 ft | 278 kts | 174° |
| 2026-05-05 09:59 | -27.35624 | 153.02183 | 7930 ft | 264 kts | 174° |
| 2026-05-05 09:59 | -27.37410 | 153.02292 | 7508 ft | 249 kts | 178° |
| 2026-05-05 10:00 | -27.39104 | 153.02234 | 7058 ft | 240 kts | 187° |
| 2026-05-05 10:00 | -27.40729 | 153.01976 | 6572 ft | 233 kts | 186° |
| 2026-05-05 10:00 | -27.42366 | 153.01751 | 5735 ft | 242 kts | 185° |
| 2026-05-05 10:00 | -27.44004 | 153.01437 | 5114 ft | 239 kts | 191° |
| 2026-05-05 10:01 | -27.45547 | 153.01036 | 5076 ft | 211 kts | 191° |
| 2026-05-05 10:01 | -27.46959 | 153.00673 | 4563 ft | 211 kts | 191° |
| 2026-05-05 10:01 | -27.48404 | 153.00489 | 4054 ft | 209 kts | 178° |
| 2026-05-05 10:01 | -27.49871 | 153.00787 | 3344 ft | 215 kts | 156° |
| 2026-05-05 10:02 | -27.50701 | 153.01862 | 3481 ft | 175 kts | 111° |
| 2026-05-05 10:02 | -27.50800 | 153.03262 | 2866 ft | 188 kts | 81° |
| 2026-05-05 10:02 | -27.49978 | 153.04332 | 2335 ft | 190 kts | 26° |
| 2026-05-05 10:02 | -27.48714 | 153.04847 | 1798 ft | 196 kts | 18° |
| 2026-05-05 10:03 | -27.47462 | 153.05366 | 1500 ft | 186 kts | 30° |